Map

Track Data

SID SEASON NUMBER BASIN SUBBASIN NAME ISO_TIME NATURE LAT LON WMO_WIND WMO_PRES WMO_AGENCY TRACK_TYPE DIST2LAND LANDFALL IFLAG USA_AGENCY USA_ATCF_ID USA_LAT USA_LON USA_RECORD USA_STATUS USA_WIND USA_PRES USA_SSHS USA_R34_NE USA_R34_SE USA_R34_SW USA_R34_NW USA_R50_NE USA_R50_SE USA_R50_SW USA_R50_NW USA_R64_NE USA_R64_SE USA_R64_SW USA_R64_NW USA_POCI USA_ROCI USA_RMW USA_EYE TOKYO_LAT TOKYO_LON TOKYO_GRADE TOKYO_WIND TOKYO_PRES TOKYO_R50_DIR TOKYO_R50_LONG TOKYO_R50_SHORT TOKYO_R30_DIR TOKYO_R30_LONG TOKYO_R30_SHORT TOKYO_LAND CMA_LAT CMA_LON CMA_CAT CMA_WIND CMA_PRES HKO_LAT HKO_LON HKO_CAT HKO_WIND HKO_PRES NEWDELHI_LAT NEWDELHI_LON NEWDELHI_GRADE NEWDELHI_WIND NEWDELHI_PRES NEWDELHI_CI NEWDELHI_DP NEWDELHI_POCI REUNION_LAT REUNION_LON REUNION_TYPE REUNION_WIND REUNION_PRES REUNION_TNUM REUNION_CI REUNION_RMW REUNION_R34_NE REUNION_R34_SE REUNION_R34_SW REUNION_R34_NW REUNION_R50_NE REUNION_R50_SE REUNION_R50_SW REUNION_R50_NW REUNION_R64_NE REUNION_R64_SE REUNION_R64_SW REUNION_R64_NW BOM_LAT BOM_LON BOM_TYPE BOM_WIND BOM_PRES BOM_TNUM BOM_CI BOM_RMW BOM_R34_NE BOM_R34_SE BOM_R34_SW BOM_R34_NW BOM_R50_NE BOM_R50_SE BOM_R50_SW BOM_R50_NW BOM_R64_NE BOM_R64_SE BOM_R64_SW BOM_R64_NW BOM_ROCI BOM_POCI BOM_EYE BOM_POS_METHOD BOM_PRES_METHOD NADI_LAT NADI_LON NADI_CAT NADI_WIND NADI_PRES WELLINGTON_LAT WELLINGTON_LON WELLINGTON_WIND WELLINGTON_PRES DS824_LAT DS824_LON DS824_STAGE DS824_WIND DS824_PRES TD9636_LAT TD9636_LON TD9636_STAGE TD9636_WIND TD9636_PRES TD9635_LAT TD9635_LON TD9635_WIND TD9635_PRES TD9635_ROCI NEUMANN_LAT NEUMANN_LON NEUMANN_CLASS NEUMANN_WIND NEUMANN_PRES MLC_LAT MLC_LON MLC_CLASS MLC_WIND MLC_PRES USA_GUST BOM_GUST BOM_GUST_PER REUNION_GUST REUNION_GUST_PER USA_SEAHGT USA_SEARAD_NE USA_SEARAD_SE USA_SEARAD_SW USA_SEARAD_NW STORM_SPEED STORM_DIR
1905091S12057 1905 15 SI MM NOT_NAMED 1905-04-01 06:00:00 NR -12.2000 56.9000 reunion main 758 724 _____O________ -1 -12.2000 56.9000 99 9.90000 7 251
1905091S12057 1905 15 SI MM NOT_NAMED 1905-04-01 09:00:00 NR -12.3091 56.5726 main 724 689 _____P________ -1 -12.3091 56.5726 99 7 251
1905091S12057 1905 15 SI MM NOT_NAMED 1905-04-01 12:00:00 NR -12.4171 56.2464 main 679 645 _____P________ -1 -12.4171 56.2464 99 7 251
1905091S12057 1905 15 SI MM NOT_NAMED 1905-04-01 15:00:00 NR -12.5232 55.9229 main 645 610 _____P________ -1 -12.5232 55.9229 99 7 252
1905091S12057 1905 15 SI MM NOT_NAMED 1905-04-01 18:00:00 NR -12.6267 55.6037 main 610 576 _____P________ -1 -12.6267 55.6037 99 7 252
1905091S12057 1905 15 SI MM NOT_NAMED 1905-04-01 21:00:00 NR -12.7268 55.2903 main 576 542 _____P________ -1 -12.7268 55.2903 99 6 252
1905091S12057 1905 15 SI MM NOT_NAMED 1905-04-02 00:00:00 NR -12.8229 54.9842 main 542 508 _____P________ -1 -12.8229 54.9842 99 6 252
1905091S12057 1905 15 SI MM NOT_NAMED 1905-04-02 03:00:00 NR -12.9142 54.6869 main 508 473 _____P________ -1 -12.9142 54.6869 99 6 253
1905091S12057 1905 15 SI MM NOT_NAMED 1905-04-02 06:00:00 NR -13.0000 54.4000 reunion main 473 439 _____O________ -1 -13.0000 54.4000 99 9.90000 6 253
1905091S12057 1905 15 SI MM NOT_NAMED 1905-04-02 09:00:00 NR -13.0800 54.1243 main 439 416 _____P________ -1 -13.0800 54.1243 99 6 254
1905091S12057 1905 15 SI MM NOT_NAMED 1905-04-02 12:00:00 NR -13.1554 53.8578 main 416 384 _____P________ -1 -13.1554 53.8578 99 5 254
1905091S12057 1905 15 SI MM NOT_NAMED 1905-04-02 15:00:00 NR -13.2279 53.5978 main 384 361 _____P________ -1 -13.2279 53.5978 99 5 254
1905091S12057 1905 15 SI MM NOT_NAMED 1905-04-02 18:00:00 NR -13.2989 53.3416 main 350 327 _____P________ -1 -13.2989 53.3416 99 5 254
1905091S12057 1905 15 SI MM NOT_NAMED 1905-04-02 21:00:00 NR -13.3701 53.0865 main 327 295 _____P________ -1 -13.3701 53.0865 99 5 254
1905091S12057 1905 15 SI MM NOT_NAMED 1905-04-03 00:00:00 NR -13.4429 52.8297 main 295 272 _____P________ -1 -13.4429 52.8297 99 5 254
1905091S12057 1905 15 SI MM NOT_NAMED 1905-04-03 03:00:00 NR -13.5191 52.5684 main 272 238 _____P________ -1 -13.5191 52.5684 99 5 253
1905091S12057 1905 15 SI MM NOT_NAMED 1905-04-03 06:00:00 NR -13.6000 52.3000 reunion main 238 205 _____O________ -1 -13.6000 52.3000 99 9.90000 6 253
1905091S12057 1905 15 SI MM NOT_NAMED 1905-04-03 09:00:00 NR -13.6848 52.0176 main 205 172 _____P________ -1 -13.6848 52.0176 99 6 253
1905091S12057 1905 15 SI MM NOT_NAMED 1905-04-03 12:00:00 NR -13.7731 51.7293 main 172 151 _____P________ -1 -13.7731 51.7293 99 6 252
1905091S12057 1905 15 SI MM NOT_NAMED 1905-04-03 15:00:00 NR -13.8654 51.4356 main 140 118 _____P________ -1 -13.8654 51.4356 99 6 252
1905091S12057 1905 15 SI MM NOT_NAMED 1905-04-03 18:00:00 NR -13.9620 51.1368 main 107 86 _____P________ -1 -13.9620 51.1368 99 6 251
1905091S12057 1905 15 SI MM NOT_NAMED 1905-04-03 21:00:00 NR -14.0634 50.8335 main 75 43 _____P________ -1 -14.0634 50.8335 99 6 251
1905091S12057 1905 15 SI MM NOT_NAMED 1905-04-04 00:00:00 NR -14.1699 50.5260 main 43 10 _____P________ -1 -14.1699 50.5260 99 6 250
1905091S12057 1905 15 SI MM NOT_NAMED 1905-04-04 03:00:00 NR -14.2820 50.2147 main 10 0 _____P________ -1 -14.2820 50.2147 99 7 249
1905091S12057 1905 15 SI MM NOT_NAMED 1905-04-04 06:00:00 NR -14.4000 49.9000 reunion main 0 0 _____O________ -1 -14.4000 49.9000 99 9.90000 7 249
1905091S12057 1905 15 SI MM NOT_NAMED 1905-04-04 09:00:00 NR -14.5176 49.5860 main 0 0 _____P________ -1 -14.5176 49.5860 99 7 249
1905091S12057 1905 15 SI MM NOT_NAMED 1905-04-04 12:00:00 NR -14.6408 49.2680 main 0 0 _____P________ -1 -14.6408 49.2680 99 7 248
1905091S12057 1905 15 SI MM NOT_NAMED 1905-04-04 15:00:00 NR -14.7698 48.9464 main 0 0 _____P________ -1 -14.7698 48.9464 99 7 247
1905091S12057 1905 15 SI MM NOT_NAMED 1905-04-04 18:00:00 NR -14.9044 48.6217 main 0 0 _____P________ -1 -14.9044 48.6217 99 7 246
1905091S12057 1905 15 SI MM NOT_NAMED 1905-04-04 21:00:00 NR -15.0447 48.2943 main 0 0 _____P________ -1 -15.0447 48.2943 99 7 246
1905091S12057 1905 15 SI MM NOT_NAMED 1905-04-05 00:00:00 NR -15.1908 47.9646 main 0 0 _____P________ -1 -15.1908 47.9646 99 7 245
1905091S12057 1905 15 SI MM NOT_NAMED 1905-04-05 03:00:00 NR -15.3425 47.6330 main 0 0 _____P________ -1 -15.3425 47.6330 99 7 244
1905091S12057 1905 15 SI MM NOT_NAMED 1905-04-05 06:00:00 NR -15.5000 47.3000 reunion main 0 0 _____O________ -1 -15.5000 47.3000 99 9.90000 7 245
1905091S12057 1905 15 SI MM NOT_NAMED 1905-04-05 09:00:00 NR -15.6515 46.9517 main 0 0 _____P________ -1 -15.6515 46.9517 99 7 245
1905091S12057 1905 15 SI MM NOT_NAMED 1905-04-05 12:00:00 NR -15.8083 46.5994 main 0 0 _____P________ -1 -15.8083 46.5994 99 8 245
1905091S12057 1905 15 SI MM NOT_NAMED 1905-04-05 15:00:00 NR -15.9710 46.2467 main 0 0 _____P________ -1 -15.9710 46.2467 99 8 244
1905091S12057 1905 15 SI MM NOT_NAMED 1905-04-05 18:00:00 NR -16.1403 45.8971 main 0 0 _____P________ -1 -16.1403 45.8971 99 8 243
1905091S12057 1905 15 SI MM NOT_NAMED 1905-04-05 21:00:00 NR -16.3172 45.5541 main 0 0 _____P________ -1 -16.3172 45.5541 99 7 241
1905091S12057 1905 15 SI MM NOT_NAMED 1905-04-06 00:00:00 NR -16.5022 45.2212 main 0 0 _____P________ -1 -16.5022 45.2212 99 7 239
1905091S12057 1905 15 SI MM NOT_NAMED 1905-04-06 03:00:00 NR -16.6962 44.9020 main 0 0 _____P________ -1 -16.6962 44.9020 99 7 236
1905091S12057 1905 15 SI MM NOT_NAMED 1905-04-06 06:00:00 NR -16.9000 44.6000 reunion main 0 0 _____O________ -1 -16.9000 44.6000 99 9.90000 7 235
1905091S12057 1905 15 SI MM NOT_NAMED 1905-04-06 09:00:00 NR -17.1006 44.2929 main 0 0 _____P________ -1 -17.1006 44.2929 99 7 234
1905091S12057 1905 15 SI MM NOT_NAMED 1905-04-06 12:00:00 NR -17.3104 43.9988 main 10 10 _____P________ -1 -17.3104 43.9988 99 7 232
1905091S12057 1905 15 SI MM NOT_NAMED 1905-04-06 15:00:00 NR -17.5298 43.7212 main 21 21 _____P________ -1 -17.5298 43.7212 99 7 229
1905091S12057 1905 15 SI MM NOT_NAMED 1905-04-06 18:00:00 NR -17.7598 43.4633 main 52 52 _____P________ -1 -17.7598 43.4633 99 7 225
1905091S12057 1905 15 SI MM NOT_NAMED 1905-04-06 21:00:00 NR -18.0011 43.2288 main 84 84 _____P________ -1 -18.0011 43.2288 99 7 220
1905091S12057 1905 15 SI MM NOT_NAMED 1905-04-07 00:00:00 NR -18.2544 43.0211 main 105 105 _____P________ -1 -18.2544 43.0211 99 6 215
1905091S12057 1905 15 SI MM NOT_NAMED 1905-04-07 03:00:00 NR -18.5204 42.8436 main 127 127 _____P________ -1 -18.5204 42.8436 99 6 209
1905091S12057 1905 15 SI MM NOT_NAMED 1905-04-07 06:00:00 NR -18.8000 42.7000 reunion main 144 144 _____O________ -1 -18.8000 42.7000 99 9.90000 6 206
1905091S12057 1905 15 SI MM NOT_NAMED 1905-04-07 09:00:00 NR -19.0994 42.5523 main 166 166 _____P________ -1 -19.0994 42.5523 99 7 202
1905091S12057 1905 15 SI MM NOT_NAMED 1905-04-07 12:00:00 NR -19.4147 42.4353 main 191 191 _____P________ -1 -19.4147 42.4353 99 7 196
1905091S12057 1905 15 SI MM NOT_NAMED 1905-04-07 15:00:00 NR -19.7415 42.3511 main 198 184 _____P________ -1 -19.7415 42.3511 99 7 191
1905091S12057 1905 15 SI MM NOT_NAMED 1905-04-07 18:00:00 NR -20.0756 42.3019 main 184 167 _____P________ -1 -20.0756 42.3019 99 7 185
1905091S12057 1905 15 SI MM NOT_NAMED 1905-04-07 21:00:00 NR -20.4129 42.2899 main 167 147 _____P________ -1 -20.4129 42.2899 99 7 178
1905091S12057 1905 15 SI MM NOT_NAMED 1905-04-08 00:00:00 NR -20.7489 42.3174 main 147 118 _____P________ -1 -20.7489 42.3174 99 7 172
1905091S12057 1905 15 SI MM NOT_NAMED 1905-04-08 03:00:00 NR -21.0794 42.3866 main 118 103 _____P________ -1 -21.0794 42.3866 99 7 165
1905091S12057 1905 15 SI MM NOT_NAMED 1905-04-08 06:00:00 NR -21.4000 42.5000 reunion main 103 79 _____O________ -1 -21.4000 42.5000 99 9.90000 7 159
1905091S12057 1905 15 SI MM NOT_NAMED 1905-04-08 09:00:00 NR -21.7092 42.6503 main 70 46 _____P________ -1 -21.7092 42.6503 99 7 152
1905091S12057 1905 15 SI MM NOT_NAMED 1905-04-08 12:00:00 NR -22.0119 42.8490 main 46 10 _____P________ -1 -22.0119 42.8490 99 7 146
1905091S12057 1905 15 SI MM NOT_NAMED 1905-04-08 15:00:00 NR -22.3063 43.0881 main 10 0 _____P________ -1 -22.3063 43.0881 99 7 141
1905091S12057 1905 15 SI MM NOT_NAMED 1905-04-08 18:00:00 NR -22.5909 43.3593 main 0 0 _____P________ -1 -22.5909 43.3593 99 8 137
1905091S12057 1905 15 SI MM NOT_NAMED 1905-04-08 21:00:00 NR -22.8642 43.6544 main 0 0 _____P________ -1 -22.8642 43.6544 99 8 134
1905091S12057 1905 15 SI MM NOT_NAMED 1905-04-09 00:00:00 NR -23.1244 43.9652 main 0 0 _____P________ -1 -23.1244 43.9652 99 8 131
1905091S12057 1905 15 SI MM NOT_NAMED 1905-04-09 03:00:00 NR -23.3701 44.2833 main 0 0 _____P________ -1 -23.3701 44.2833 99 8 129
1905091S12057 1905 15 SI MM NOT_NAMED 1905-04-09 06:00:00 NR -23.6000 44.6000 reunion main 0 0 _____O________ -1 -23.6000 44.6000 99 9.90000 7 129
1905091S12057 1905 15 SI MM NOT_NAMED 1905-04-09 09:00:00 NR -23.8216 44.8845 main 0 0 _____P________ -1 -23.8216 44.8845 99 7 129
1905091S12057 1905 15 SI MM NOT_NAMED 1905-04-09 12:00:00 NR -24.0276 45.1737 main 0 0 _____P________ -1 -24.0276 45.1737 99 7 127
1905091S12057 1905 15 SI MM NOT_NAMED 1905-04-09 15:00:00 NR -24.2192 45.4657 main 0 0 _____P________ -1 -24.2192 45.4657 99 7 125
1905091S12057 1905 15 SI MM NOT_NAMED 1905-04-09 18:00:00 NR -24.3973 45.7585 main 0 0 _____P________ -1 -24.3973 45.7585 99 6 123
1905091S12057 1905 15 SI MM NOT_NAMED 1905-04-09 21:00:00 NR -24.5633 46.0503 main 0 0 _____P________ -1 -24.5633 46.0503 99 6 121
1905091S12057 1905 15 SI MM NOT_NAMED 1905-04-10 00:00:00 NR -24.7183 46.3391 main 0 0 _____P________ -1 -24.7183 46.3391 99 6 120
1905091S12057 1905 15 SI MM NOT_NAMED 1905-04-10 03:00:00 NR -24.8635 46.6229 main 0 0 _____P________ -1 -24.8635 46.6229 99 6 119
1905091S12057 1905 15 SI MM NOT_NAMED 1905-04-10 06:00:00 NR -25.0000 46.9000 reunion main 0 0 _____O________ -1 -25.0000 46.9000 99 9.90000 6 118
1905091S12057 1905 15 SI MM NOT_NAMED 1905-04-10 09:00:00 NR -25.1291 47.1688 main 15 15 _____P________ -1 -25.1291 47.1688 99 5 118
1905091S12057 1905 15 SI MM NOT_NAMED 1905-04-10 12:00:00 NR -25.2516 47.4300 main 45 45 _____P________ -1 -25.2516 47.4300 99 5 117
1905091S12057 1905 15 SI MM NOT_NAMED 1905-04-10 15:00:00 NR -25.3686 47.6846 main 75 75 _____P________ -1 -25.3686 47.6846 99 5 117
1905091S12057 1905 15 SI MM NOT_NAMED 1905-04-10 18:00:00 NR -25.4808 47.9339 main 97 97 _____P________ -1 -25.4808 47.9339 99 5 116
1905091S12057 1905 15 SI MM NOT_NAMED 1905-04-10 21:00:00 NR -25.5892 48.1789 main 129 129 _____P________ -1 -25.5892 48.1789 99 5 116
1905091S12057 1905 15 SI MM NOT_NAMED 1905-04-11 00:00:00 NR -25.6946 48.4208 main 152 152 _____P________ -1 -25.6946 48.4208 99 5 116
1905091S12057 1905 15 SI MM NOT_NAMED 1905-04-11 03:00:00 NR -25.7979 48.6608 main 183 183 _____P________ -1 -25.7979 48.6608 99 5 115
1905091S12057 1905 15 SI MM NOT_NAMED 1905-04-11 06:00:00 NR -25.9000 48.9000 reunion main 206 _____O________ -1 -25.9000 48.9000 99 9.90000 5 115

About IBTrACS Database

This database is a web-friendly format of International Best Track Archive for Climate Stewardship (IBTrACS), a global best track data archive curated by NOAA dating back to 1842.

Updated: 2021-12-03